createdAt,value
2018-08-09T00:00:13.841Z,98287.11
2018-08-09T00:02:26.102Z,98284.28
2018-08-09T00:04:38.262Z,98284.10
2018-08-09T00:06:50.569Z,98279.98
2018-08-09T00:09:03.354Z,98276.48
2018-08-09T00:11:15.619Z,98275.52
2018-08-09T00:13:27.828Z,98277.48
2018-08-09T00:15:40.077Z,98271.70
2018-08-09T00:17:52.272Z,98276.02
2018-08-09T00:20:04.878Z,98272.52
2018-08-09T00:22:17.053Z,98274.84
2018-08-09T00:24:29.254Z,98276.17
2018-08-09T00:26:41.432Z,98268.41
2018-08-09T00:28:53.609Z,98266.09
2018-08-09T00:31:05.917Z,98263.91
2018-08-09T00:33:18.114Z,98270.98
2018-08-09T00:35:30.310Z,98266.81
2018-08-09T00:37:42.489Z,98265.15
2018-08-09T00:39:54.736Z,98263.64
2018-08-09T00:42:06.933Z,98259.67
2018-08-09T00:44:19.198Z,98258.18
2018-08-09T00:46:31.467Z,98254.39
2018-08-09T00:48:43.654Z,98255.38
2018-08-09T00:50:55.862Z,98244.81
2018-08-09T00:53:08.026Z,98247.41
2018-08-09T00:55:20.229Z,98242.63
2018-08-09T00:57:32.463Z,98243.80
2018-08-09T00:59:44.642Z,98237.63
2018-08-09T01:01:56.838Z,98236.12
2018-08-09T01:04:09.002Z,98232.52
2018-08-09T01:06:21.219Z,98233.19
2018-08-09T01:08:33.389Z,98230.89
2018-08-09T01:10:45.546Z,98235.17
2018-08-09T01:12:57.751Z,98238.31
2018-08-09T01:15:10.019Z,98238.64
2018-08-09T01:17:22.243Z,98238.14
2018-08-09T01:19:34.446Z,98237.82
2018-08-09T01:21:46.652Z,98235.52
2018-08-09T01:23:59.286Z,98235.52
2018-08-09T01:26:11.467Z,98233.88
2018-08-09T01:28:23.748Z,98233.88
2018-08-09T01:30:35.966Z,98225.77
2018-08-09T01:32:48.150Z,98234.34
2018-08-09T01:35:00.347Z,98230.20
2018-08-09T01:37:12.563Z,98228.88
2018-08-09T01:39:24.811Z,98224.55
2018-08-09T01:41:37.074Z,98225.87
2018-08-09T01:43:58.978Z,98220.94
2018-08-09T01:46:11.223Z,98222.57
2018-08-09T01:48:23.382Z,98221.39
2018-08-09T01:50:35.575Z,98221.39
2018-08-09T01:52:47.733Z,98225.03
2018-08-09T01:55:00.298Z,98226.83
2018-08-09T01:57:12.498Z,98224.83
2018-08-09T01:59:24.668Z,98223.80
2018-08-09T02:01:36.827Z,98219.10
2018-08-09T02:03:49.086Z,98219.39
2018-08-09T02:06:01.276Z,98205.97
2018-08-09T02:08:13.513Z,98207.25
2018-08-09T02:10:25.738Z,98211.38
2018-08-09T02:12:37.913Z,98209.89
2018-08-09T02:14:50.125Z,98208.76
2018-08-09T02:17:02.323Z,98201.03
2018-08-09T02:19:14.510Z,98201.35
2018-08-09T02:21:26.734Z,98195.89
2018-08-09T02:23:38.890Z,98190.42
2018-08-09T02:25:51.091Z,98191.91
2018-08-09T02:28:03.293Z,98188.55
2018-08-09T02:30:15.482Z,98176.95
2018-08-09T02:32:27.661Z,98177.78
2018-08-09T02:34:39.871Z,98169.34
2018-08-09T02:36:52.050Z,98171.97
2018-08-09T02:39:06.326Z,98170.60
2018-08-09T02:41:18.509Z,98174.37
2018-08-09T02:43:30.687Z,98165.94
2018-08-09T02:45:42.868Z,98162.47
2018-08-09T02:47:55.059Z,98163.93
2018-08-09T02:50:07.246Z,98160.66
2018-08-09T02:52:19.439Z,98163.11
2018-08-09T02:54:31.596Z,98161.27
2018-08-09T02:56:43.789Z,98167.37
2018-08-09T02:58:56.076Z,98161.93
2018-08-09T03:01:08.289Z,98163.58
2018-08-09T03:03:20.519Z,98160.63
2018-08-09T03:05:33.526Z,98151.08
2018-08-09T03:07:45.729Z,98155.69
2018-08-09T03:09:57.878Z,98153.03
2018-08-09T03:12:10.121Z,98156.76
2018-08-09T03:14:22.286Z,98156.27
2018-08-09T03:16:34.497Z,98158.25
2018-08-09T03:18:46.710Z,98163.13
2018-08-09T03:20:58.889Z,98165.91
2018-08-09T03:23:11.085Z,98168.33
2018-08-09T03:25:23.384Z,98162.63
2018-08-09T03:27:35.594Z,98173.81
2018-08-09T03:29:47.761Z,98169.63
2018-08-09T03:31:59.945Z,98167.62
2018-08-09T03:34:12.123Z,98169.23
2018-08-09T03:36:24.279Z,98166.59
2018-08-09T03:38:36.442Z,98169.89
2018-08-09T03:40:48.635Z,98165.45
2018-08-09T03:43:00.827Z,98169.39
2018-08-09T03:45:13.023Z,98173.19
2018-08-09T03:47:25.235Z,98176.81
2018-08-09T03:49:37.438Z,98175.30
2018-08-09T03:51:49.627Z,98173.05
2018-08-09T03:54:01.787Z,98170.42
2018-08-09T03:56:14.010Z,98168.11
2018-08-09T03:58:26.204Z,98176.02
2018-08-09T04:00:38.396Z,98177.63
2018-08-09T04:02:50.630Z,98178.13
2018-08-09T04:05:03.235Z,98173.52
2018-08-09T04:07:15.454Z,98171.67
2018-08-09T04:09:27.613Z,98177.10
2018-08-09T04:11:40.321Z,98176.61
2018-08-09T04:13:52.465Z,98173.55
2018-08-09T04:16:04.978Z,98172.23
2018-08-09T04:18:17.145Z,98175.78
2018-08-09T04:20:29.331Z,98173.02
2018-08-09T04:22:41.970Z,98173.16
2018-08-09T04:24:54.130Z,98174.34
2018-08-09T04:27:06.322Z,98176.48
2018-08-09T04:29:18.538Z,98176.67
2018-08-09T04:31:30.710Z,98170.75
2018-08-09T04:33:42.907Z,98181.32
2018-08-09T04:35:55.085Z,98181.55
2018-08-09T04:38:07.307Z,98181.25
2018-08-09T04:40:19.492Z,98178.31
2018-08-09T04:42:31.669Z,98170.73
2018-08-09T04:44:43.868Z,98175.22
2018-08-09T04:46:56.246Z,98175.25
2018-08-09T04:49:08.504Z,98179.39
2018-08-09T04:51:20.650Z,98178.93
2018-08-09T04:53:32.806Z,98183.24
2018-08-09T04:55:45.021Z,98183.68
2018-08-09T04:57:57.241Z,98189.45
2018-08-09T05:00:09.490Z,98194.09
2018-08-09T05:02:21.746Z,98191.18
2018-08-09T05:04:33.950Z,98195.91
2018-08-09T05:06:46.231Z,98190.69
2018-08-09T05:08:58.401Z,98191.12
2018-08-09T05:11:10.623Z,98193.48
2018-08-09T05:13:22.823Z,98196.95
2018-08-09T05:15:35.030Z,98198.62
2018-08-09T05:17:47.202Z,98202.45
2018-08-09T05:19:59.528Z,98208.76
2018-08-09T05:22:11.762Z,98198.91
2018-08-09T05:24:23.953Z,98199.77
2018-08-09T05:26:36.128Z,98196.00
2018-08-09T05:28:48.318Z,98191.42
2018-08-09T05:31:00.510Z,98200.18
2018-08-09T05:33:12.703Z,98194.62
2018-08-09T05:35:24.857Z,98200.73
2018-08-09T05:37:37.365Z,98198.43
2018-08-09T05:39:49.583Z,98195.66
2018-08-09T05:42:01.796Z,98197.17
2018-08-09T05:44:14.005Z,98193.91
2018-08-09T05:46:26.174Z,98194.92
2018-08-09T05:48:38.365Z,98190.78
2018-08-09T05:50:50.530Z,98187.33
2018-08-09T05:53:02.755Z,98195.94
2018-08-09T05:55:14.938Z,98201.58
2018-08-09T05:57:27.122Z,98194.98
2018-08-09T05:59:39.366Z,98204.23
2018-08-09T06:01:51.641Z,98202.91
2018-08-09T06:04:03.927Z,98203.44
2018-08-09T06:06:16.149Z,98201.63
2018-08-09T06:08:28.341Z,98198.01
2018-08-09T06:10:40.555Z,98202.80
2018-08-09T06:12:52.785Z,98199.17
2018-08-09T06:15:05.025Z,98200.67
2018-08-09T06:17:17.267Z,98200.31
2018-08-09T06:19:29.462Z,98199.98
2018-08-09T06:21:41.708Z,98197.02
2018-08-09T06:23:53.878Z,98204.80
2018-08-09T06:26:06.093Z,98207.74
2018-08-09T06:28:18.400Z,98199.94
2018-08-09T06:30:30.638Z,98193.83
2018-08-09T06:32:42.879Z,98192.27
2018-08-09T06:34:55.077Z,98194.66
2018-08-09T06:37:07.314Z,98186.49
2018-08-09T06:39:19.542Z,98185.02
2018-08-09T06:41:31.705Z,98187.02
2018-08-09T06:43:43.884Z,98191.35
2018-08-09T06:45:56.054Z,98187.52
2018-08-09T06:48:08.382Z,98185.84
2018-08-09T06:50:20.565Z,98183.91
2018-08-09T06:52:32.731Z,98185.60
2018-08-09T06:54:44.927Z,98177.42
2018-08-09T06:56:57.386Z,98183.68
2018-08-09T06:59:09.582Z,98176.41
2018-08-09T07:01:21.778Z,98174.24
2018-08-09T07:03:33.952Z,98172.89
2018-08-09T07:05:46.157Z,98177.47
2018-08-09T07:07:58.339Z,98172.77
2018-08-09T07:10:10.582Z,98168.88
2018-08-09T07:12:22.778Z,98160.91
2018-08-09T07:14:34.961Z,98156.88
2018-08-09T07:16:47.206Z,98152.52
2018-08-09T07:18:59.425Z,98151.20
2018-08-09T07:21:11.614Z,98141.20
2018-08-09T07:23:23.822Z,98136.77
2018-08-09T07:25:36.038Z,98123.02
2018-08-09T07:27:48.311Z,98132.11
2018-08-09T07:30:00.481Z,98125.80
2018-08-09T07:32:12.667Z,98128.92
2018-08-09T07:34:24.842Z,98121.63
2018-08-09T07:36:37.064Z,98122.02
2018-08-09T07:38:49.290Z,98120.03
2018-08-09T07:41:01.777Z,98118.72
2018-08-09T07:43:14.027Z,98112.48
2018-08-09T07:45:26.194Z,98105.81
2018-08-09T07:47:38.428Z,98099.30
2018-08-09T07:49:50.882Z,98106.25
2018-08-09T07:52:03.370Z,98095.14
2018-08-09T07:54:15.625Z,98090.48
2018-08-09T07:56:27.843Z,98087.99
2018-08-09T07:58:40.130Z,98093.58
2018-08-09T08:00:52.312Z,98086.80
2018-08-09T08:03:04.581Z,98093.19
2018-08-09T08:05:16.774Z,98082.02
2018-08-09T08:07:28.990Z,98077.69
2018-08-09T08:09:41.199Z,98075.28
2018-08-09T08:11:53.386Z,98067.25
2018-08-09T08:14:05.653Z,98070.39
2018-08-09T08:16:17.923Z,98070.98
2018-08-09T08:18:30.179Z,98067.25
2018-08-09T08:20:42.400Z,98073.71
2018-08-09T08:22:54.613Z,98074.49
2018-08-09T08:25:07.174Z,98071.16
2018-08-09T08:27:19.389Z,98081.88
2018-08-09T08:29:31.652Z,98081.23
2018-08-09T08:31:43.950Z,98077.58
2018-08-09T08:33:56.175Z,98084.55
2018-08-09T08:36:08.485Z,98082.48
2018-08-09T08:38:20.678Z,98077.79
2018-08-09T08:40:32.903Z,98077.20
2018-08-09T08:42:45.123Z,98080.50
2018-08-09T08:44:57.320Z,98077.77
2018-08-09T08:47:09.626Z,98079.45
2018-08-09T08:49:21.838Z,98078.16
2018-08-09T08:51:34.030Z,98068.27
2018-08-09T08:53:46.670Z,98066.11
2018-08-09T08:55:58.906Z,98066.48
2018-08-09T08:58:11.148Z,98058.88
2018-08-09T09:00:23.379Z,98064.12
2018-08-09T09:02:35.756Z,98055.91
2018-08-09T09:04:48.012Z,98051.34
2018-08-09T09:07:00.289Z,98053.12
2018-08-09T09:09:13.267Z,98057.41
2018-08-09T09:11:25.459Z,98049.59
2018-08-09T09:13:37.657Z,98052.94
2018-08-09T09:15:49.902Z,98047.50
2018-08-09T09:18:02.159Z,98033.00
2018-08-09T09:20:15.610Z,98035.31
2018-08-09T09:22:27.807Z,98024.62
2018-08-09T09:24:40.055Z,98024.07
2018-08-09T09:26:52.254Z,98021.44
2018-08-09T09:29:04.459Z,98021.30
2018-08-09T09:31:16.677Z,98018.95
2018-08-09T09:33:28.909Z,98021.00
2018-08-09T09:35:41.150Z,98018.44
2018-08-09T09:37:53.373Z,98010.19
2018-08-09T09:40:06.349Z,98007.55
2018-08-09T09:42:18.609Z,98009.28
2018-08-09T09:44:30.826Z,98011.22
2018-08-09T09:46:43.054Z,98012.64
2018-08-09T09:48:55.309Z,98005.52
2018-08-09T09:51:07.565Z,98011.55
2018-08-09T09:53:19.782Z,98013.78
2018-08-09T09:55:32.006Z,98014.36
2018-08-09T09:57:44.221Z,98007.70
2018-08-09T09:59:56.420Z,98008.27
2018-08-09T10:02:08.675Z,98010.05
2018-08-09T10:04:20.885Z,97996.80
2018-08-09T10:06:33.830Z,97990.97
2018-08-09T10:08:46.042Z,98004.44
2018-08-09T10:10:58.255Z,98002.91
2018-08-09T10:13:10.527Z,97998.05
2018-08-09T10:15:22.745Z,97994.78
2018-08-09T10:17:35.420Z,97984.53
2018-08-09T10:19:47.679Z,97982.22
2018-08-09T10:21:59.907Z,97979.84
2018-08-09T10:24:12.113Z,97973.52
2018-08-09T10:26:24.326Z,97976.02
2018-08-09T10:28:36.547Z,97971.74
2018-08-09T10:30:48.763Z,97966.53
2018-08-09T10:33:01.038Z,97959.75
2018-08-09T10:35:13.244Z,97950.88
2018-08-09T10:37:25.485Z,97949.73
2018-08-09T10:39:37.703Z,97939.43
2018-08-09T10:41:49.915Z,97942.34
2018-08-09T10:44:02.210Z,97939.91
2018-08-09T10:46:14.427Z,97943.82
2018-08-09T10:48:26.699Z,97948.27
2018-08-09T10:50:38.934Z,97950.63
2018-08-09T10:52:51.109Z,97956.83
2018-08-09T10:55:03.582Z,97954.78
2018-08-09T10:57:15.766Z,97945.45
2018-08-09T10:59:27.907Z,97952.42
2018-08-09T11:01:40.160Z,97940.62
2018-08-09T11:03:52.904Z,97939.54
2018-08-09T11:06:05.254Z,97926.38
2018-08-09T11:08:17.450Z,97932.59
2018-08-09T11:10:29.690Z,97929.34
2018-08-09T11:12:41.888Z,97920.48
2018-08-09T11:14:54.094Z,97922.16
2018-08-09T11:17:06.346Z,97916.50
2018-08-09T11:19:18.589Z,97912.75
2018-08-09T11:21:30.843Z,97913.83
2018-08-09T11:23:43.055Z,97914.61
2018-08-09T11:25:55.610Z,97906.14
2018-08-09T11:28:07.854Z,97904.25
2018-08-09T11:30:20.092Z,97899.59
2018-08-09T11:32:32.291Z,97903.95
2018-08-09T11:34:44.495Z,97903.84
2018-08-09T11:36:56.834Z,97897.91
2018-08-09T11:39:10.773Z,97897.67
2018-08-09T11:41:22.949Z,97878.20
2018-08-09T11:43:35.138Z,97884.75
2018-08-09T11:45:47.366Z,97884.35
2018-08-09T11:47:59.634Z,97886.64
2018-08-09T11:50:11.891Z,97882.06
2018-08-09T11:52:24.242Z,97883.64
2018-08-09T11:54:36.554Z,97884.65
2018-08-09T11:56:48.821Z,97878.79
2018-08-09T11:59:01.002Z,97874.51
2018-08-09T12:01:13.233Z,97872.75
2018-08-09T12:03:25.797Z,97870.59
2018-08-09T12:05:38.020Z,97862.06
2018-08-09T12:07:50.193Z,97858.92
2018-08-09T12:10:02.454Z,97859.46
2018-08-09T12:12:14.698Z,97858.28
2018-08-09T12:14:26.950Z,97854.74
2018-08-09T12:16:39.138Z,97853.25
2018-08-09T12:18:51.335Z,97852.73
2018-08-09T12:21:03.594Z,97848.69
2018-08-09T12:23:15.918Z,97847.75
2018-08-09T12:25:28.211Z,97846.84
2018-08-09T12:27:40.455Z,97836.02
2018-08-09T12:29:52.661Z,97836.16
2018-08-09T12:32:05.476Z,97832.42
2018-08-09T12:34:17.838Z,97837.81
2018-08-09T12:36:30.122Z,97827.25
2018-08-09T12:38:42.296Z,97829.23
2018-08-09T12:40:54.547Z,97827.31
2018-08-09T12:43:06.850Z,97828.93
2018-08-09T12:45:19.197Z,97827.11
2018-08-09T12:47:31.447Z,97813.86
2018-08-09T12:49:43.734Z,97810.67
2018-08-09T12:51:56.043Z,97808.33
2018-08-09T12:54:08.284Z,97801.66
2018-08-09T12:56:20.488Z,97808.36
2018-08-09T12:58:32.706Z,97812.67
2018-08-09T13:00:44.895Z,97808.63
2018-08-09T13:02:57.119Z,97805.82
2018-08-09T13:05:10.790Z,97807.27
2018-08-09T13:07:22.986Z,97810.55
2018-08-09T13:09:35.245Z,97818.17
2018-08-09T13:11:47.448Z,97822.98
2018-08-09T13:13:59.717Z,97830.95
2018-08-09T13:16:11.992Z,97827.25
2018-08-09T13:18:24.202Z,97826.88
2018-08-09T13:20:36.378Z,97831.58
2018-08-09T13:22:49.949Z,97841.02
2018-08-09T13:25:02.197Z,97838.02
2018-08-09T13:27:14.595Z,97848.30
2018-08-09T13:29:26.851Z,97850.15
2018-08-09T13:31:39.087Z,97858.77
2018-08-09T13:33:51.419Z,97863.70
2018-08-09T13:36:03.641Z,97932.05
2018-08-09T13:38:15.880Z,98012.70
2018-08-09T13:40:28.124Z,98036.10
2018-08-09T13:42:40.930Z,98059.41
2018-08-09T13:44:53.266Z,98040.62
2018-08-09T13:47:05.550Z,98052.63
2018-08-09T13:49:17.806Z,98076.17
2018-08-09T13:51:30.172Z,98119.59
2018-08-09T13:53:42.319Z,98107.25
2018-08-09T13:55:54.575Z,98122.44
2018-08-09T13:58:06.821Z,98128.19
2018-08-09T14:00:19.034Z,98127.42
2018-08-09T14:02:31.290Z,98112.47
2018-08-09T14:04:43.556Z,98123.04
2018-08-09T14:06:55.826Z,98150.72
2018-08-09T14:09:10.287Z,98158.09
2018-08-09T14:11:22.548Z,98174.61
2018-08-09T14:13:34.811Z,98160.14
2018-08-09T14:15:47.024Z,98163.08
2018-08-09T14:17:59.309Z,98165.27
2018-08-09T14:20:14.417Z,98157.10
2018-08-09T14:22:26.634Z,98168.95
2018-08-09T14:24:38.927Z,98197.02
2018-08-09T14:26:51.134Z,98213.66
2018-08-09T14:29:04.014Z,98227.09
2018-08-09T14:31:16.347Z,98223.27
2018-08-09T14:33:28.575Z,98223.02
2018-08-09T14:35:40.787Z,98220.44
2018-08-09T14:37:53.010Z,98221.87
2018-08-09T14:40:06.256Z,98229.06
2018-08-09T14:42:18.669Z,98230.09
2018-08-09T14:44:30.845Z,98222.16
2018-08-09T14:46:43.048Z,98228.95
2018-08-09T14:48:55.326Z,98224.06
2018-08-09T14:51:07.582Z,98211.97
2018-08-09T14:53:19.813Z,98217.52
2018-08-09T14:55:32.047Z,98214.45
2018-08-09T14:57:44.290Z,98208.58
2018-08-09T14:59:56.556Z,98211.76
2018-08-09T15:02:08.913Z,98204.98
2018-08-09T15:04:21.128Z,98205.57
2018-08-09T15:06:33.444Z,98206.31
2018-08-09T15:08:45.653Z,98198.39
2018-08-09T15:10:57.878Z,98195.12
2018-08-09T15:13:10.125Z,98204.36
2018-08-09T15:15:22.374Z,98202.13
2018-08-09T15:17:34.581Z,98200.03
2018-08-09T15:19:46.806Z,98197.48
2018-08-09T15:21:59.084Z,98204.70
2018-08-09T15:24:11.362Z,98208.63
2018-08-09T15:26:23.592Z,98218.44
2018-08-09T15:28:36.204Z,98215.88
2018-08-09T15:30:48.470Z,98218.90
2018-08-09T15:33:00.687Z,98222.00
2018-08-09T15:35:13.373Z,98223.80
2018-08-09T15:37:25.641Z,98221.15
2018-08-09T15:39:37.871Z,98229.62
2018-08-09T15:41:50.097Z,98225.64
2018-08-09T15:44:02.371Z,98229.45
2018-08-09T15:46:14.597Z,98224.61
2018-08-09T15:48:27.027Z,98227.94
2018-08-09T15:50:39.189Z,98218.49
2018-08-09T15:52:51.462Z,98220.52
2018-08-09T15:55:04.236Z,98216.64
2018-08-09T15:57:16.446Z,98222.92
2018-08-09T15:59:28.693Z,98219.77
2018-08-09T16:01:41.308Z,98223.70
2018-08-09T16:03:53.628Z,98215.13
2018-08-09T16:06:05.847Z,98219.42
2018-08-09T16:08:18.145Z,98211.60
2018-08-09T16:10:30.378Z,98216.34
2018-08-09T16:12:42.739Z,98209.20
2018-08-09T16:14:54.999Z,98216.94
2018-08-09T16:17:07.621Z,98213.94
2018-08-09T16:19:19.946Z,98210.09
2018-08-09T16:21:32.322Z,98206.47
2018-08-09T16:23:44.530Z,98214.08
2018-08-09T16:25:56.863Z,98216.64
2018-08-09T16:28:10.314Z,98221.99
2018-08-09T16:30:24.679Z,98214.14
2018-08-09T16:32:36.980Z,98214.50
2018-08-09T16:34:49.242Z,98212.05
2018-08-09T16:37:01.539Z,98216.88
2018-08-09T16:39:14.346Z,98213.17
2018-08-09T16:41:26.581Z,98213.14
2018-08-09T16:43:38.855Z,98223.08
2018-08-09T16:45:51.111Z,98225.42
2018-08-09T16:48:03.582Z,98214.61
2018-08-09T16:50:18.035Z,98218.86
2018-08-09T16:52:30.251Z,98216.73
2018-08-09T16:54:42.438Z,98220.73
2018-08-09T16:56:54.632Z,98217.00
2018-08-09T16:59:06.892Z,98218.64
2018-08-09T17:01:19.123Z,98220.11
2018-08-09T17:03:31.545Z,98218.92
2018-08-09T17:05:43.813Z,98217.62
2018-08-09T17:07:56.509Z,98221.23
2018-08-09T17:10:09.699Z,98223.95
2018-08-09T17:12:21.938Z,98222.48
2018-08-09T17:14:34.170Z,98225.08
2018-08-09T17:16:46.414Z,98226.27
2018-08-09T17:18:58.675Z,98223.02
2018-08-09T17:21:11.049Z,98231.19
2018-08-09T17:23:23.286Z,98229.52
2018-08-09T17:25:35.548Z,98239.27
2018-08-09T17:27:48.573Z,98243.00
2018-08-09T17:30:00.789Z,98250.47
2018-08-09T17:32:13.053Z,98263.13
2018-08-09T17:34:25.287Z,98262.84
2018-08-09T17:36:37.568Z,98266.67
2018-08-09T17:38:49.789Z,98273.92
2018-08-09T17:41:02.078Z,98272.73
2018-08-09T17:43:14.331Z,98277.50
2018-08-09T17:45:28.839Z,98283.55
2018-08-09T17:47:41.150Z,98298.70
2018-08-09T17:49:53.400Z,98302.41
2018-08-09T17:52:05.866Z,98306.63
2018-08-09T17:54:18.117Z,98312.86
2018-08-09T17:56:30.462Z,98322.20
2018-08-09T17:58:42.671Z,98333.72
2018-08-09T18:00:54.975Z,98332.45
2018-08-09T18:03:07.316Z,98338.77
2018-08-09T18:05:19.532Z,98347.59
2018-08-09T18:07:31.814Z,98349.42
2018-08-09T18:09:44.027Z,98347.09
2018-08-09T18:11:56.274Z,98338.70
2018-08-09T18:14:08.543Z,98335.90
2018-08-09T18:16:20.843Z,98341.89
2018-08-09T18:18:33.288Z,98337.77
2018-08-09T18:20:45.486Z,98336.59
2018-08-09T18:22:58.216Z,98337.59
2018-08-09T18:25:11.614Z,98337.91
2018-08-09T18:27:23.951Z,98333.11
2018-08-09T18:29:36.296Z,98320.48
2018-08-09T18:31:48.612Z,98318.52
2018-08-09T18:34:00.867Z,98325.45
2018-08-09T18:36:13.106Z,98331.79
2018-08-09T18:38:25.374Z,98329.60
2018-08-09T18:40:37.624Z,98334.89
2018-08-09T18:42:49.961Z,98329.88
2018-08-09T18:45:02.237Z,98329.75
2018-08-09T18:47:14.486Z,98320.12
2018-08-09T18:49:26.696Z,98333.26
2018-08-09T18:51:38.927Z,98336.27
2018-08-09T18:53:51.127Z,98334.89
2018-08-09T18:56:03.422Z,98347.17
2018-08-09T18:58:15.707Z,98349.99
2018-08-09T19:00:29.241Z,98348.34
2018-08-09T19:02:41.947Z,98342.20
2018-08-09T19:04:54.204Z,98354.79
2018-08-09T19:07:06.571Z,98361.13
2018-08-09T19:09:18.859Z,98368.73
2018-08-09T19:11:31.160Z,98362.44
2018-08-09T19:13:43.371Z,98361.61
2018-08-09T19:15:55.656Z,98368.08
2018-08-09T19:18:07.934Z,98363.78
2018-08-09T19:20:25.459Z,98368.72
2018-08-09T19:22:37.785Z,98377.34
2018-08-09T19:24:50.069Z,98379.81
2018-08-09T19:27:02.498Z,98391.42
2018-08-09T19:29:14.662Z,98400.87
2018-08-09T19:31:26.962Z,98411.30
2018-08-09T19:33:39.224Z,98407.47
2018-08-09T19:35:51.461Z,98412.12
2018-08-09T19:38:03.746Z,98419.59
2018-08-09T19:40:18.769Z,98426.39
2018-08-09T19:42:31.067Z,98430.52
2018-08-09T19:44:43.385Z,98438.16
2018-08-09T19:46:55.601Z,98441.94
2018-08-09T19:49:07.874Z,98442.11
2018-08-09T19:51:20.114Z,98448.91
2018-08-09T19:53:32.371Z,98454.69
2018-08-09T19:55:44.673Z,98459.66
2018-08-09T19:57:56.968Z,98462.47
2018-08-09T20:00:11.510Z,98454.05
2018-08-09T20:02:23.764Z,98463.45
2018-08-09T20:04:35.994Z,98460.67
2018-08-09T20:06:48.271Z,98457.17
2018-08-09T20:09:00.422Z,98451.39
2018-08-09T20:11:12.655Z,98449.22
2018-08-09T20:13:24.922Z,98464.84
2018-08-09T20:15:37.218Z,98458.67
2018-08-09T20:17:49.500Z,98465.30
2018-08-09T20:20:01.752Z,98460.16
2018-08-09T20:22:16.339Z,98461.81
2018-08-09T20:24:28.567Z,98472.73
2018-08-09T20:26:41.175Z,98475.74
2018-08-09T20:28:53.424Z,98477.89
2018-08-09T20:31:05.811Z,98478.19
2018-08-09T20:33:18.068Z,98475.71
2018-08-09T20:35:30.432Z,98484.30
2018-08-09T20:37:44.571Z,98474.34
2018-08-09T20:39:56.887Z,98473.34
2018-08-09T20:42:09.164Z,98483.30
2018-08-09T20:44:21.458Z,98486.26
2018-08-09T20:46:33.745Z,98488.34
2018-08-09T20:48:45.991Z,98493.27
2018-08-09T20:50:58.266Z,98492.74
2018-08-09T20:53:10.523Z,98489.41
2018-08-09T20:55:23.071Z,98486.77
2018-08-09T20:57:35.428Z,98483.31
2018-08-09T20:59:47.732Z,98490.95
2018-08-09T21:02:00.063Z,98486.11
2018-08-09T21:04:12.271Z,98482.55
2018-08-09T21:06:24.531Z,98485.27
2018-08-09T21:08:36.773Z,98482.17
2018-08-09T21:10:49.092Z,98479.30
2018-08-09T21:13:01.836Z,98483.66
2018-08-09T21:15:14.491Z,98477.77
2018-08-09T21:17:26.611Z,98479.47
2018-08-09T21:19:38.879Z,98477.27
2018-08-09T21:21:51.106Z,98480.08
2018-08-09T21:24:03.494Z,98484.97
2018-08-09T21:26:15.758Z,98484.64
2018-08-09T21:28:28.001Z,98485.99
2018-08-09T21:30:40.242Z,98492.89
2018-08-09T21:32:52.573Z,98498.73
2018-08-09T21:35:05.093Z,98494.94
2018-08-09T21:37:17.282Z,98497.67
2018-08-09T21:39:29.549Z,98504.61
2018-08-09T21:41:41.784Z,98507.09
2018-08-09T21:43:54.038Z,98516.59
2018-08-09T21:46:06.250Z,98519.73
2018-08-09T21:48:18.498Z,98519.04
2018-08-09T21:50:30.719Z,98515.05
2018-08-09T21:52:43.026Z,98527.33
2018-08-09T21:54:55.286Z,98527.89
2018-08-09T21:57:07.542Z,98535.38
2018-08-09T21:59:19.826Z,98537.00
2018-08-09T22:01:32.086Z,98537.46
2018-08-09T22:03:44.350Z,98537.98
2018-08-09T22:06:02.218Z,98549.62
2018-08-09T22:08:20.065Z,98557.09
2018-08-09T22:12:42.371Z,98562.78
2018-08-09T22:15:00.231Z,98570.24
2018-08-09T22:17:18.202Z,98574.99
2018-08-09T22:19:36.070Z,98568.84
2018-08-09T22:21:53.996Z,98570.91
2018-08-09T22:24:06.288Z,98583.09
2018-08-09T22:26:18.608Z,98587.96
2018-08-09T22:28:31.141Z,98586.31
2018-08-09T22:30:43.342Z,98590.92
2018-08-09T22:32:55.578Z,98592.86
2018-08-09T22:35:07.771Z,98599.30
2018-08-09T22:37:20.549Z,98600.50
2018-08-09T22:39:32.800Z,98605.57
2018-08-09T22:41:45.001Z,98613.98
2018-08-09T22:43:57.212Z,98613.98
2018-08-09T22:46:09.467Z,98625.38
2018-08-09T22:48:21.705Z,98636.13
2018-08-09T22:50:33.942Z,98633.75
2018-08-09T22:52:46.148Z,98638.00
2018-08-09T22:54:58.391Z,98639.48
2018-08-09T22:57:10.561Z,98643.64
2018-08-09T22:59:22.757Z,98647.89
2018-08-09T23:01:34.922Z,98646.86
2018-08-09T23:03:47.208Z,98651.45
2018-08-09T23:05:59.428Z,98648.42
2018-08-09T23:08:13.062Z,98657.22
2018-08-09T23:10:25.321Z,98658.81
2018-08-09T23:12:37.574Z,98654.59
2018-08-09T23:14:49.759Z,98660.41
2018-08-09T23:17:01.988Z,98663.25
2018-08-09T23:19:14.266Z,98666.92
2018-08-09T23:21:26.645Z,98682.92
2018-08-09T23:23:38.927Z,98684.94
2018-08-09T23:25:51.158Z,98694.84
2018-08-09T23:28:03.398Z,98694.97
2018-08-09T23:30:15.642Z,98706.70
2018-08-09T23:32:27.967Z,98705.84
2018-08-09T23:34:40.485Z,98719.30
2018-08-09T23:36:52.696Z,98716.38
2018-08-09T23:39:07.998Z,98728.22
2018-08-09T23:41:20.282Z,98726.98
2018-08-09T23:43:32.462Z,98731.06
2018-08-09T23:45:44.648Z,98735.48
2018-08-09T23:47:57.085Z,98733.02
2018-08-09T23:50:10.887Z,98733.92
2018-08-09T23:52:23.091Z,98740.19
2018-08-09T23:54:35.303Z,98748.67
2018-08-09T23:56:47.496Z,98750.44
2018-08-09T23:58:59.788Z,98752.73
